Time;durP1;ratioP1;P1;durP2;ratioP2;P2;SDS_P1;SDS_P2;PMS_P1;PMS_P2;Temp;Humidity;BMP_temperature;BMP_pressure;BME280_temperature;BME280_humidity;BME280_pressure;Samples;Min_cycle;Max_cycle;Signal;HPM_P1;HPM_P2
2021/10/03 00:00:59;;;;;;;5.13;2.90;;;;;;;18.03;69.74;98596.25;5073330;28;20064;-63
2021/10/03 00:03:27;;;;;;;5.70;3.17;;;;;;;18.12;69.07;98610.72;5072915;28;20049;-63
2021/10/03 00:05:55;;;;;;;3.42;2.42;;;;;;;18.17;68.73;98599.00;5072028;28;20057;-63
2021/10/03 00:08:25;;;;;;;3.40;2.75;;;;;;;18.26;68.19;98598.53;5072151;28;20056;-62
2021/10/03 00:10:54;;;;;;;4.53;2.90;;;;;;;18.34;67.33;98608.56;5072434;28;20056;-61
2021/10/03 00:13:23;;;;;;;4.30;2.78;;;;;;;18.36;67.40;98588.44;5073655;28;20052;-61
2021/10/03 00:15:53;;;;;;;4.80;3.00;;;;;;;18.44;66.61;98601.25;5071798;28;20087;-61
2021/10/03 00:18:21;;;;;;;3.80;2.60;;;;;;;18.49;66.32;98608.47;5073929;28;20052;-61
2021/10/03 00:20:48;;;;;;;3.85;2.83;;;;;;;18.63;66.53;98599.91;5072604;28;20060;-61
2021/10/03 00:23:16;;;;;;;4.38;2.85;;;;;;;18.54;66.31;98605.19;5070923;28;20068;-61
2021/10/03 00:25:45;;;;;;;3.10;2.60;;;;;;;18.55;66.21;98618.09;5071642;28;20061;-60
2021/10/03 00:28:13;;;;;;;3.60;2.40;;;;;;;18.59;66.49;98607.59;5069706;28;20053;-61
2021/10/03 00:30:43;;;;;;;3.75;2.63;;;;;;;18.58;66.64;98623.72;5072999;28;20055;-61
2021/10/03 00:33:11;;;;;;;6.20;3.05;;;;;;;18.37;67.42;98624.66;5072672;28;20052;-61
2021/10/03 00:35:39;;;;;;;4.95;2.80;;;;;;;18.43;67.96;98610.91;5072786;28;20048;-61
2021/10/03 00:38:09;;;;;;;4.32;3.00;;;;;;;18.49;68.36;98614.91;5073187;28;20090;-61
2021/10/03 00:40:37;;;;;;;;;;;;;;;18.41;68.05;98616.97;5070643;28;20057;-61
2021/10/03 00:43:08;;;;;;;5.73;2.77;;;;;;;18.03;73.01;98621.63;5070486;28;19935;-62
2021/10/03 00:45:37;;;;;;;4.38;3.03;;;;;;;17.96;72.34;98630.13;5073285;28;20067;-61
2021/10/03 00:48:05;;;;;;;4.13;2.73;;;;;;;17.43;75.22;98635.50;5072432;28;20052;-62
2021/10/03 00:50:34;;;;;;;4.47;3.53;;;;;;;17.25;77.88;98629.09;5072487;28;20052;-61
2021/10/03 00:53:01;;;;;;;7.25;3.42;;;;;;;17.07;80.84;98633.94;5071032;28;20052;-61
2021/10/03 00:55:33;;;;;;;7.22;3.83;;;;;;;17.15;79.77;98632.72;5072775;28;20059;-61
2021/10/03 00:58:01;;;;;;;5.90;3.60;;;;;;;17.26;79.30;98644.78;5072405;28;20394;-61
2021/10/03 01:00:32;;;;;;;4.63;4.10;;;;;;;17.15;79.42;98635.53;5071998;28;20061;-62
2021/10/03 01:03:01;;;;;;;5.97;3.78;;;;;;;17.04;79.77;98627.13;5071076;28;20502;-62
2021/10/03 01:05:29;;;;;;;6.18;3.60;;;;;;;17.24;78.36;98638.75;5071902;28;20067;-62
2021/10/03 01:07:57;;;;;;;9.38;3.50;;;;;;;17.17;77.95;98639.56;5071783;28;20064;-62
2021/10/03 01:10:28;;;;;;;5.78;3.65;;;;;;;17.11;78.91;98623.50;5071646;28;20055;-60
2021/10/03 01:13:02;;;;;;;4.68;3.15;;;;;;;17.20;78.11;98626.72;5072368;28;20058;-62
2021/10/03 01:15:34;;;;;;;6.13;3.60;;;;;;;17.11;77.24;98618.66;5072411;28;20057;-61
2021/10/03 01:18:02;;;;;;;4.75;3.30;;;;;;;17.09;77.93;98621.06;5072110;28;20070;-62
2021/10/03 01:20:30;;;;;;;5.65;3.10;;;;;;;17.11;77.61;98617.88;5072177;28;20491;-62
2021/10/03 01:23:03;;;;;;;4.47;3.30;;;;;;;17.04;77.74;98635.56;5072779;28;20405;-62
2021/10/03 01:25:31;;;;;;;8.77;4.07;;;;;;;17.00;78.75;98615.88;5072033;28;20064;-62
2021/10/03 01:27:59;;;;;;;5.22;3.35;;;;;;;17.03;77.51;98611.47;5072561;28;20060;-62
2021/10/03 01:30:26;;;;;;;3.90;2.80;;;;;;;17.20;76.13;98623.91;5071861;28;20071;-62
2021/10/03 01:32:54;;;;;;;4.20;2.85;;;;;;;17.28;76.19;98616.22;5072671;28;20059;-61
2021/10/03 01:35:21;;;;;;;4.63;3.10;;;;;;;17.34;75.35;98626.66;5072581;28;20052;-62
2021/10/03 01:37:50;;;;;;;4.65;2.90;;;;;;;17.40;74.85;98627.84;5072620;28;20056;-61
2021/10/03 01:40:21;;;;;;;4.15;3.05;;;;;;;17.40;74.99;98613.78;5072765;28;20068;-61
2021/10/03 01:42:50;;;;;;;4.18;2.63;;;;;;;17.43;73.50;98600.94;5072845;28;20057;-61
2021/10/03 01:45:21;;;;;;;4.53;2.75;;;;;;;17.57;73.58;98595.22;5072165;28;20057;-61
2021/10/03 01:48:06;;;;;;;4.20;2.78;;;;;;;17.59;73.30;98592.00;5072223;28;20506;-61
2021/10/03 01:50:36;;;;;;;4.50;2.70;;;;;;;17.64;72.56;98606.47;5072249;28;20510;-61
2021/10/03 01:53:05;;;;;;;4.78;2.40;;;;;;;17.73;71.14;98611.66;5072069;28;20379;-61
2021/10/03 01:55:34;;;;;;;3.47;2.47;;;;;;;17.73;70.92;98608.84;5072309;28;20071;-61
2021/10/03 01:58:03;;;;;;;4.53;2.67;;;;;;;17.87;70.77;98605.22;5072322;28;20056;-60
2021/10/03 02:00:30;;;;;;;5.38;2.55;;;;;;;17.99;69.64;98601.13;5072495;28;20434;-61
2021/10/03 02:03:00;;;;;;;3.13;2.20;;;;;;;18.07;69.29;98605.50;5071528;28;20044;-61
2021/10/03 02:05:33;;;;;;;4.70;2.70;;;;;;;18.17;68.60;98610.28;5072282;28;20061;-61
2021/10/03 02:08:01;;;;;;;3.75;2.60;;;;;;;18.18;68.84;98614.69;5072009;28;20056;-62
2021/10/03 02:10:28;;;;;;;4.22;2.67;;;;;;;18.24;67.84;98600.97;5071932;28;20057;-63
2021/10/03 02:13:00;;;;;;;3.85;2.58;;;;;;;18.31;68.09;98614.22;5072041;28;20064;-64
2021/10/03 02:15:28;;;;;;;3.15;2.38;;;;;;;18.30;67.45;98590.88;5071780;28;20061;-65
2021/10/03 02:17:56;;;;;;;4.65;2.60;;;;;;;18.34;67.51;98607.75;5071631;28;20060;-65
2021/10/03 02:20:24;;;;;;;3.83;2.60;;;;;;;18.45;66.72;98588.75;5071962;28;20418;-65
2021/10/03 02:22:52;;;;;;;3.85;2.40;;;;;;;18.45;66.47;98605.66;5075350;28;20063;-65
2021/10/03 02:25:20;;;;;;;3.38;2.60;;;;;;;18.54;66.04;98603.19;5075789;28;20064;-65
2021/10/03 02:27:49;;;;;;;4.43;2.20;;;;;;;18.49;65.80;98585.91;5075737;28;20485;-65
2021/10/03 02:30:18;;;;;;;4.43;1.93;;;;;;;18.55;65.25;98590.69;5075972;28;20061;-65
2021/10/03 02:32:45;;;;;;;5.07;2.47;;;;;;;18.60;65.14;98587.41;5075913;28;21097;-64
2021/10/03 02:35:13;;;;;;;4.45;2.28;;;;;;;18.67;64.88;98581.72;5075650;28;20052;-64
2021/10/03 02:37:41;;;;;;;4.13;2.10;;;;;;;18.69;65.05;98589.78;5075584;28;20056;-64
2021/10/03 02:40:13;;;;;;;2.95;2.20;;;;;;;18.72;63.90;98588.16;5074878;28;20057;-63
2021/10/03 02:42:44;;;;;;;4.68;2.33;;;;;;;18.83;63.72;98580.41;5075129;28;20060;-63
2021/10/03 02:45:12;;;;;;;3.85;2.20;;;;;;;18.77;63.57;98574.41;5074963;28;20056;-63
2021/10/03 02:47:42;;;;;;;3.05;2.10;;;;;;;18.81;64.52;98572.38;5075734;28;20059;-63
2021/10/03 02:50:10;;;;;;;;;;;;;;;18.71;64.86;98559.16;5076113;28;20056;-63
2021/10/03 02:52:37;;;;;;;2.72;1.90;;;;;;;18.69;64.48;98591.78;5074824;28;19920;-63
2021/10/03 02:55:05;;;;;;;3.40;1.73;;;;;;;18.66;64.47;98562.41;5075053;28;20061;-63
2021/10/03 02:57:33;;;;;;;3.28;2.05;;;;;;;18.69;65.76;98558.75;5075000;28;20479;-62
2021/10/03 03:00:00;;;;;;;3.00;2.10;;;;;;;18.66;65.23;98559.59;5075238;28;20052;-62
2021/10/03 03:02:27;;;;;;;3.03;2.30;;;;;;;18.64;64.42;98543.06;5074955;28;20052;-62
2021/10/03 03:04:56;;;;;;;3.47;2.00;;;;;;;18.53;64.47;98548.00;5075239;28;20498;-62
2021/10/03 03:07:24;;;;;;;2.80;2.30;;;;;;;18.64;64.09;98542.28;5074986;28;20053;-62
2021/10/03 03:09:54;;;;;;;2.92;2.10;;;;;;;18.67;63.82;98549.91;5074924;28;20056;-62
2021/10/03 03:12:21;;;;;;;5.13;2.38;;;;;;;18.75;63.83;98561.91;5074701;28;20048;-62
2021/10/03 03:14:48;;;;;;;3.97;2.20;;;;;;;18.79;63.31;98540.97;5075043;28;20067;-62
2021/10/03 03:17:19;;;;;;;5.15;2.10;;;;;;;18.63;64.16;98535.84;5074699;28;20061;-62
2021/10/03 03:19:47;;;;;;;2.90;2.00;;;;;;;18.72;63.51;98543.81;5075139;28;20067;-62
2021/10/03 03:22:16;;;;;;;3.83;1.40;;;;;;;18.84;62.24;98540.50;5075016;28;20069;-62
2021/10/03 03:24:44;;;;;;;3.33;2.33;;;;;;;18.89;62.30;98536.44;5074346;28;20061;-62
2021/10/03 03:27:12;;;;;;;4.75;2.55;;;;;;;18.89;62.55;98530.00;5074817;28;20052;-62
2021/10/03 03:29:39;;;;;;;5.50;2.72;;;;;;;19.00;61.38;98541.97;5075034;28;20067;-62
2021/10/03 03:32:07;;;;;;;2.88;2.00;;;;;;;18.95;62.37;98534.75;5074703;28;20063;-62
2021/10/03 03:34:35;;;;;;;4.75;2.40;;;;;;;18.85;63.83;98547.75;5073882;28;20099;-61
2021/10/03 03:37:03;;;;;;;3.60;2.03;;;;;;;18.87;63.04;98544.50;5075092;28;20052;-62
2021/10/03 03:39:32;;;;;;;5.05;2.60;;;;;;;18.77;64.65;98559.47;5074231;28;20061;-61
2021/10/03 03:41:59;;;;;;;5.78;3.40;;;;;;;18.58;66.84;98550.41;5074631;28;20056;-62
2021/10/03 03:44:26;;;;;;;4.10;2.72;;;;;;;18.21;68.64;98548.28;5070788;28;20061;-62
2021/10/03 03:46:54;;;;;;;5.07;3.08;;;;;;;17.78;73.40;98545.66;5085583;28;20064;-62
2021/10/03 03:49:21;;;;;;;3.80;2.95;;;;;;;17.90;71.14;98545.22;5074632;28;20057;-61
2021/10/03 03:51:49;;;;;;;5.85;3.40;;;;;;;17.93;71.12;98543.59;5074291;28;20067;-61
2021/10/03 03:54:18;;;;;;;6.93;3.00;;;;;;;17.82;72.01;98555.72;5074083;28;20049;-61
2021/10/03 03:56:49;;;;;;;4.80;3.15;;;;;;;17.73;71.65;98555.34;5074104;28;20052;-61
2021/10/03 03:59:17;;;;;;;5.03;3.55;;;;;;;17.48;74.03;98547.03;5074356;28;20063;-61
2021/10/03 04:01:44;;;;;;;5.90;3.55;;;;;;;17.38;74.82;98548.66;5074145;28;20068;-60
2021/10/03 04:04:14;;;;;;;6.03;3.92;;;;;;;17.04;76.45;98548.38;5073448;28;20068;-61
2021/10/03 04:06:42;;;;;;;9.70;4.13;;;;;;;16.89;78.94;98552.41;5073836;28;20072;-61
2021/10/03 04:09:09;;;;;;;11.88;4.78;;;;;;;16.68;81.53;98561.66;5074034;28;20499;-62
2021/10/03 04:11:37;;;;;;;9.05;4.50;;;;;;;16.84;78.64;98554.44;5073848;28;20052;-61
2021/10/03 04:14:11;;;;;;;8.52;4.80;;;;;;;16.80;78.61;98561.25;5073896;28;20055;-62
2021/10/03 04:16:38;;;;;;;10.65;4.47;;;;;;;16.80;78.55;98553.63;5073425;28;20063;-62
2021/10/03 04:19:06;;;;;;;6.68;4.70;;;;;;;16.84;78.00;98562.06;5074013;28;20060;-62
2021/10/03 04:21:33;;;;;;;8.63;4.53;;;;;;;16.80;77.62;98553.63;5072722;28;20063;-62
2021/10/03 04:24:01;;;;;;;8.80;4.75;;;;;;;16.58;80.03;98543.56;5072800;28;20044;-62
2021/10/03 04:26:28;;;;;;;20.15;5.25;;;;;;;16.44;81.55;98541.56;5073581;28;20052;-61
2021/10/03 04:28:56;;;;;;;6.40;4.50;;;;;;;16.29;81.75;98543.56;5073805;28;20060;-62
2021/10/03 04:31:25;;;;;;;7.32;5.50;;;;;;;16.45;81.76;98548.81;5073304;28;20053;-61
2021/10/03 04:33:52;;;;;;;7.28;5.32;;;;;;;16.49;81.40;98543.97;5073453;28;20057;-62
2021/10/03 04:36:19;;;;;;;8.20;5.40;;;;;;;16.60;81.01;98541.97;5072582;28;20372;-61
2021/10/03 04:38:47;;;;;;;7.75;6.03;;;;;;;16.58;81.00;98538.75;5073087;28;20445;-61
2021/10/03 04:41:14;;;;;;;9.32;5.97;;;;;;;16.64;79.87;98547.59;5072730;28;20071;-61
2021/10/03 04:43:44;;;;;;;12.20;5.70;;;;;;;16.76;79.50;98546.38;5073206;28;20068;-61
2021/10/03 04:46:11;;;;;;;11.02;5.65;;;;;;;16.74;79.16;98543.16;5073011;28;20052;-61
2021/10/03 04:48:40;;;;;;;11.35;6.03;;;;;;;16.49;81.31;98546.00;5073345;28;20429;-62
2021/10/03 04:51:07;;;;;;;8.80;5.88;;;;;;;16.42;81.94;98549.59;5072757;28;20048;-60
2021/10/03 04:53:35;;;;;;;9.88;6.40;;;;;;;16.47;81.93;98542.78;5072795;28;20398;-62
2021/10/03 04:56:02;;;;;;;10.50;6.63;;;;;;;16.46;82.15;98539.16;5072425;28;20052;-61
2021/10/03 04:58:29;;;;;;;11.85;7.05;;;;;;;16.52;81.87;98550.81;5072776;28;20064;-61
2021/10/03 05:00:58;;;;;;;7.10;6.20;;;;;;;16.50;80.49;98550.41;5073002;28;20060;-61
2021/10/03 05:03:25;;;;;;;8.30;6.13;;;;;;;16.59;80.78;98548.81;5072450;28;20061;-61
2021/10/03 05:05:54;;;;;;;10.88;7.32;;;;;;;16.63;80.16;98543.97;5072463;28;20049;-61
2021/10/03 05:08:21;;;;;;;10.00;6.50;;;;;;;16.73;79.42;98547.19;5072217;28;20052;-61
2021/10/03 05:10:48;;;;;;;9.10;6.72;;;;;;;16.74;79.84;98548.78;5072945;28;20414;-61
2021/10/03 05:13:16;;;;;;;9.65;6.80;;;;;;;16.70;80.05;98536.75;5072232;28;20057;-61
2021/10/03 05:15:44;;;;;;;9.13;6.32;;;;;;;16.70;79.07;98537.53;5072490;28;20056;-61
2021/10/03 05:18:11;;;;;;;10.05;6.50;;;;;;;16.90;78.83;98537.13;5072541;28;20079;-61
2021/10/03 05:20:38;;;;;;;11.82;6.30;;;;;;;16.75;79.94;98530.72;5071615;28;20529;-61
2021/10/03 05:23:07;;;;;;;8.77;6.65;;;;;;;16.86;78.98;98527.91;5072228;28;20056;-61
2021/10/03 05:25:35;;;;;;;8.27;6.63;;;;;;;16.91;78.65;98517.06;5072483;28;20060;-61
2021/10/03 05:28:02;;;;;;;9.40;6.80;;;;;;;16.90;78.77;98523.06;5072796;28;21003;-61
2021/10/03 05:30:29;;;;;;;9.48;6.72;;;;;;;17.04;78.12;98523.84;5072294;28;20068;-61
2021/10/03 05:32:57;;;;;;;9.77;7.13;;;;;;;17.13;77.93;98522.63;5052343;28;20060;-61
2021/10/03 05:35:24;;;;;;;14.23;6.38;;;;;;;17.07;77.78;98527.06;5051985;28;20061;-60
2021/10/03 05:37:51;;;;;;;9.68;7.00;;;;;;;17.07;77.88;98522.22;5052671;28;20068;-61
2021/10/03 05:40:20;;;;;;;8.73;6.85;;;;;;;17.16;78.21;98521.81;5071013;28;20474;-61
2021/10/03 05:42:48;;;;;;;11.63;7.30;;;;;;;17.11;78.53;98517.38;5072289;28;20490;-61
2021/10/03 05:45:15;;;;;;;9.00;6.53;;;;;;;17.17;77.89;98529.03;5072134;28;20056;-61
2021/10/03 05:47:42;;;;;;;11.00;5.85;;;;;;;17.18;77.52;98508.94;5071920;28;20056;-61
2021/10/03 05:50:11;;;;;;;9.88;6.68;;;;;;;17.15;77.46;98514.56;5072005;28;20053;-60
2021/10/03 05:52:39;;;;;;;9.95;6.88;;;;;;;17.11;77.76;98514.56;5072011;28;20052;-60
2021/10/03 05:55:06;;;;;;;9.13;7.07;;;;;;;17.22;77.88;98512.56;5071386;28;20079;-61
2021/10/03 05:57:35;;;;;;;9.50;6.40;;;;;;;17.14;78.04;98524.25;5073844;28;20057;-61
2021/10/03 06:00:04;;;;;;;9.53;6.80;;;;;;;17.17;77.62;98518.56;5076602;28;20055;-61
2021/10/03 06:02:31;;;;;;;9.95;6.93;;;;;;;17.17;78.52;98518.56;5075434;28;20466;-61
2021/10/03 06:04:59;;;;;;;10.68;6.90;;;;;;;17.11;78.25;98517.38;5076413;28;20068;-61
2021/10/03 06:07:26;;;;;;;10.88;7.05;;;;;;;17.23;77.68;98521.78;5075428;28;20049;-62
2021/10/03 06:09:53;;;;;;;11.63;7.45;;;;;;;17.32;77.81;98513.69;5075546;28;20064;-62
2021/10/03 06:12:21;;;;;;;11.20;6.90;;;;;;;17.28;78.45;98515.72;5075503;28;20490;-61
2021/10/03 06:14:49;;;;;;;9.13;6.65;;;;;;;17.18;77.87;98513.78;5075832;28;20052;-61
2021/10/03 06:17:16;;;;;;;9.07;6.87;;;;;;;17.32;77.88;98510.88;5074085;28;20052;-61
2021/10/03 06:19:44;;;;;;;9.38;6.88;;;;;;;17.30;76.58;98507.69;5075353;28;20056;-61
2021/10/03 06:22:14;;;;;;;8.50;6.65;;;;;;;17.29;77.12;98522.97;5075716;28;20387;-61
2021/10/03 06:24:41;;;;;;;10.02;6.18;;;;;;;17.34;77.38;98519.72;5075115;28;20057;-61
2021/10/03 06:27:09;;;;;;;7.72;6.25;;;;;;;17.40;76.79;98528.56;5071592;28;20071;-61
2021/10/03 06:29:39;;;;;;;11.27;6.13;;;;;;;17.16;78.91;98502.91;5075126;28;20449;-61
2021/10/03 06:32:10;;;;;;;9.45;6.55;;;;;;;17.35;77.87;98498.03;5075897;28;20056;-61
2021/10/03 06:34:38;;;;;;;10.05;6.55;;;;;;;17.45;77.71;98505.63;5075258;28;20053;-61
2021/10/03 06:37:05;;;;;;;8.52;6.82;;;;;;;17.51;76.60;98489.09;5075325;28;20056;-61
2021/10/03 06:39:33;;;;;;;9.77;6.03;;;;;;;17.54;76.36;98499.56;5075230;28;20403;-61
2021/10/03 06:42:00;;;;;;;8.15;6.15;;;;;;;17.66;75.91;98493.47;5074297;28;20052;-61
2021/10/03 06:44:27;;;;;;;7.38;5.85;;;;;;;17.74;74.66;98497.81;5073700;28;20079;-61
2021/10/03 06:46:54;;;;;;;6.75;5.38;;;;;;;17.83;73.73;98500.22;5074499;28;20057;-61
2021/10/03 06:49:24;;;;;;;8.18;5.70;;;;;;;17.94;73.69;98505.78;5070709;28;20422;-61
2021/10/03 06:51:51;;;;;;;11.00;5.97;;;;;;;18.14;72.55;98508.84;5072902;28;20071;-61
2021/10/03 06:54:19;;;;;;;11.35;6.00;;;;;;;18.06;71.69;98519.38;5071868;28;20049;-61
2021/10/03 06:56:47;;;;;;;7.43;5.47;;;;;;;18.16;71.95;98512.84;5073499;28;20060;-61
2021/10/03 06:59:15;;;;;;;8.15;5.50;;;;;;;18.25;71.41;98518.84;5074351;28;20056;-61
2021/10/03 07:01:42;;;;;;;6.93;5.90;;;;;;;18.12;72.68;98512.09;5073360;28;20067;-61
2021/10/03 07:04:09;;;;;;;7.10;4.63;;;;;;;18.17;71.28;98519.31;5074247;28;20075;-61
2021/10/03 07:06:38;;;;;;;10.18;5.28;;;;;;;18.16;72.88;98523.31;5074600;28;20060;-61
2021/10/03 07:09:06;;;;;;;7.97;5.22;;;;;;;18.21;71.78;98515.25;5073161;28;20415;-61
2021/10/03 07:11:33;;;;;;;8.63;5.28;;;;;;;18.15;72.68;98522.53;5074947;28;20056;-61
2021/10/03 07:14:01;;;;;;;6.72;5.22;;;;;;;18.16;72.77;98535.41;5071441;28;20059;-61
2021/10/03 07:16:28;;;;;;;7.13;5.60;;;;;;;18.25;72.91;98518.84;5063635;28;20415;-61
2021/10/03 07:18:56;;;;;;;9.15;5.55;;;;;;;18.20;71.85;98522.09;5071809;28;20057;-61
2021/10/03 07:21:23;;;;;;;6.75;5.22;;;;;;;18.10;73.06;98534.25;5074369;28;20049;-60
2021/10/03 07:23:52;;;;;;;6.93;5.03;;;;;;;18.23;70.73;98532.53;5074754;28;20052;-61
2021/10/03 07:26:20;;;;;;;13.88;5.50;;;;;;;18.42;69.99;98542.47;5074212;28;20398;-61
2021/10/03 07:28:47;;;;;;;9.73;5.35;;;;;;;18.63;70.63;98558.41;5072398;28;20065;-61
2021/10/03 07:31:19;;;;;;;8.45;5.18;;;;;;;18.79;70.66;98559.91;5074593;28;20071;-60
2021/10/03 07:33:47;;;;;;;10.38;5.25;;;;;;;18.82;70.34;98550.63;5073659;28;20067;-60
2021/10/03 07:36:17;;;;;;;6.70;4.88;;;;;;;18.77;70.89;98551.84;5073993;28;20380;-61
2021/10/03 07:38:44;;;;;;;6.30;5.55;;;;;;;18.45;71.94;98564.19;5073064;28;20057;-60
2021/10/03 07:41:13;;;;;;;10.40;5.30;;;;;;;18.16;75.79;98560.75;5074188;28;20059;-59
2021/10/03 07:43:40;;;;;;;8.48;6.13;;;;;;;17.99;75.98;98568.09;5074232;28;20483;-61
2021/10/03 07:46:08;;;;;;;11.00;5.20;;;;;;;17.87;76.44;98562.97;5072032;28;20045;-60
2021/10/03 07:48:35;;;;;;;8.80;6.32;;;;;;;17.47;79.53;98562.31;5073652;28;20403;-61
2021/10/03 07:51:03;;;;;;;8.45;6.35;;;;;;;17.59;80.16;98563.84;5073194;28;20064;-61
2021/10/03 07:53:30;;;;;;;9.13;6.55;;;;;;;17.45;80.22;98557.09;5073239;28;20052;-61
2021/10/03 07:55:58;;;;;;;8.77;6.32;;;;;;;17.54;79.35;98572.75;5072572;28;20056;-61
2021/10/03 07:58:26;;;;;;;10.23;6.60;;;;;;;17.69;79.29;98577.09;5071625;28;20049;-61
2021/10/03 08:00:54;;;;;;;9.88;7.10;;;;;;;17.69;78.24;98568.66;5071219;28;20130;-61
2021/10/03 08:03:21;;;;;;;12.13;7.32;;;;;;;17.76;79.14;98579.88;5071608;28;20056;-60
2021/10/03 08:05:49;;;;;;;8.88;6.47;;;;;;;17.72;78.21;98583.91;5056300;28;20063;-61
2021/10/03 08:08:17;;;;;;;10.57;7.03;;;;;;;17.84;78.80;98577.84;5059950;28;20052;-61
2021/10/03 08:10:45;;;;;;;8.55;6.20;;;;;;;17.50;79.57;98581.19;5070819;28;20401;-61
2021/10/03 08:13:13;;;;;;;13.65;7.43;;;;;;;17.41;81.34;98584.44;5071763;28;20056;-60
2021/10/03 08:15:42;;;;;;;8.57;6.80;;;;;;;17.01;84.46;98595.00;5071567;28;20052;-61
2021/10/03 08:18:11;;;;;;;;;;;;;;;16.97;83.26;98599.81;5072928;28;20102;-61
2021/10/03 08:20:40;;;;;;;13.88;7.15;;;;;;;16.67;84.47;98588.13;5068741;28;19920;-61
2021/10/03 08:23:09;;;;;;;12.75;7.85;;;;;;;16.55;88.04;98592.97;5053630;28;20064;-62
2021/10/03 08:25:37;;;;;;;15.13;7.67;;;;;;;16.38;88.59;98588.16;5070901;28;20056;-63
2021/10/03 08:28:05;;;;;;;14.38;7.45;;;;;;;16.21;89.54;98595.31;5072621;28;20056;-63
2021/10/03 08:30:32;;;;;;;14.60;8.63;;;;;;;16.07;92.57;98615.78;5071664;28;20390;-63
2021/10/03 08:33:01;;;;;;;28.35;9.95;;;;;;;16.23;94.45;98593.75;5071693;28;20064;-63
2021/10/03 08:35:29;;;;;;;17.45;10.43;;;;;;;16.26;94.28;98597.75;5072559;28;20471;-64
2021/10/03 08:37:56;;;;;;;17.73;10.10;;;;;;;16.30;96.13;98604.19;5071299;28;20052;-63
2021/10/03 08:40:24;;;;;;;15.27;8.90;;;;;;;16.13;98.28;98613.38;5071808;28;20056;-63
2021/10/03 08:42:51;;;;;;;12.73;7.53;;;;;;;16.10;99.10;98623.38;5070134;28;20049;-63
2021/10/03 08:45:20;;;;;;;13.13;9.23;;;;;;;15.86;100.00;98610.88;5071415;28;20052;-64
2021/10/03 08:47:47;;;;;;;17.63;9.55;;;;;;;15.95;100.00;98599.28;5071816;28;20059;-64
2021/10/03 08:50:18;;;;;;;22.30;11.27;;;;;;;16.15;100.00;98605.38;5071452;28;20406;-64
2021/10/03 08:52:46;;;;;;;21.50;11.40;;;;;;;16.15;98.00;98614.59;5071261;28;20052;-64
2021/10/03 08:55:16;;;;;;;15.25;9.65;;;;;;;16.04;96.30;98610.94;5070020;28;20506;-64
2021/10/03 08:57:44;;;;;;;18.65;9.95;;;;;;;16.11;95.64;98601.75;5072172;28;20395;-65
2021/10/03 09:00:16;;;;;;;14.50;9.70;;;;;;;16.11;94.77;98608.16;5071142;28;20080;-65
2021/10/03 09:03:00;;;;;;;16.80;10.13;;;;;;;16.37;95.53;98592.16;5072553;28;20518;-65
2021/10/03 09:05:31;;;;;;;16.60;10.73;;;;;;;16.46;93.24;98609.41;5069978;28;20051;-65
2021/10/03 09:08:07;;;;;;;19.00;10.68;;;;;;;16.48;93.70;98606.19;5071544;28;20052;-65
2021/10/03 09:11:01;;;;;;;16.38;10.60;;;;;;;16.48;93.29;98609.81;5076947;28;20525;-65
2021/10/03 09:13:47;;;;;;;26.40;11.90;;;;;;;16.48;93.03;98623.88;5066177;28;20048;-66
2021/10/03 09:16:17;;;;;;;15.52;9.50;;;;;;;16.33;91.13;98619.44;5072194;28;20060;-65
2021/10/03 09:18:45;;;;;;;;;;;;;;;16.42;92.78;98619.84;5068722;28;20063;-65
2021/10/03 09:21:33;;;;;;;21.92;11.27;;;;;;;16.24;94.13;98605.78;5071758;28;19928;-66
2021/10/03 09:24:02;;;;;;;16.63;9.57;;;;;;;16.13;96.13;98604.97;5068459;28;20053;-66
2021/10/03 09:26:31;;;;;;;14.98;8.82;;;;;;;16.17;94.22;98609.38;5071817;28;20071;-66
2021/10/03 09:28:59;;;;;;;19.95;9.55;;;;;;;16.13;95.74;98611.38;5072144;28;20514;-67
2021/10/03 09:31:26;;;;;;;21.33;9.93;;;;;;;16.11;96.21;98608.16;5071254;28;20075;-66
2021/10/03 09:33:55;;;;;;;17.95;9.95;;;;;;;16.19;96.65;98606.97;5071479;28;20059;-67
2021/10/03 09:36:29;;;;;;;21.30;10.53;;;;;;;16.07;96.97;98621.38;5071715;28;20060;-66
2021/10/03 09:38:59;;;;;;;18.33;9.77;;;;;;;16.16;97.16;98638.66;5071867;28;20048;-67
2021/10/03 09:41:28;;;;;;;27.48;11.65;;;;;;;16.14;98.45;98634.63;5071148;28;20075;-67
2021/10/03 09:43:58;;;;;;;18.15;10.68;;;;;;;16.08;98.63;98625.78;5072705;28;20079;-67
2021/10/03 09:46:34;;;;;;;20.02;13.38;;;;;;;16.39;100.00;98618.63;5071558;28;20068;-68
2021/10/03 09:49:04;;;;;;;15.90;10.88;;;;;;;16.22;98.54;98616.59;5071203;28;20056;-68
2021/10/03 09:51:34;;;;;;;18.05;10.70;;;;;;;16.24;99.56;98623.44;5071523;28;20075;-67
2021/10/03 09:54:03;;;;;;;31.48;11.52;;;;;;;16.36;99.56;98610.22;5071251;28;20487;-68
2021/10/03 09:56:33;;;;;;;21.38;13.38;;;;;;;16.57;98.56;98613.06;5071243;28;20060;-68
2021/10/03 09:59:01;;;;;;;17.98;11.65;;;;;;;16.60;97.73;98606.59;5071162;28;20494;-67
2021/10/03 10:01:33;;;;;;;15.97;10.77;;;;;;;16.68;96.37;98595.38;5070489;28;20056;-68
2021/10/03 10:04:02;;;;;;;16.58;11.40;;;;;;;16.58;95.30;98605.41;5070431;28;20067;-68
2021/10/03 10:06:30;;;;;;;14.98;10.07;;;;;;;16.82;94.60;98598.22;5069168;28;20419;-68
2021/10/03 10:09:04;;;;;;;22.55;11.77;;;;;;;16.89;94.87;98611.47;5070786;28;20075;-67
2021/10/03 10:11:37;;;;;;;17.42;9.95;;;;;;;16.93;91.15;98624.31;5071293;28;20060;-68
2021/10/03 10:14:05;;;;;;;16.17;9.35;;;;;;;17.05;89.77;98603.44;5068640;28;20406;-68
2021/10/03 10:16:35;;;;;;;15.67;10.13;;;;;;;17.10;91.30;98628.31;5070939;28;20045;-67
2021/10/03 10:19:32;;;;;;;20.40;10.27;;;;;;;17.07;92.42;98611.44;5071050;28;20061;-67
2021/10/03 10:22:36;;;;;;;20.05;9.50;;;;;;;16.79;92.54;98607.41;5071669;28;20056;-68
2021/10/03 10:25:16;;;;;;;25.40;11.30;;;;;;;16.95;92.52;98607.84;5065910;28;20059;-67
2021/10/03 10:28:07;;;;;;;15.48;9.15;;;;;;;16.88;92.65;98605.03;5070163;28;20049;-67
2021/10/03 10:30:53;;;;;;;19.88;9.82;;;;;;;17.00;92.99;98599.00;5068913;28;20063;-67
2021/10/03 10:33:21;;;;;;;28.80;11.73;;;;;;;16.79;95.57;98605.41;5070953;28;20053;-67
2021/10/03 10:35:50;;;;;;;25.60;10.80;;;;;;;16.81;96.60;98611.47;5069607;28;20053;-67
2021/10/03 10:38:21;;;;;;;24.52;10.73;;;;;;;16.72;94.91;98613.84;5070468;28;20056;-67
2021/10/03 10:40:51;;;;;;;18.15;10.15;;;;;;;16.83;95.49;98608.25;5070230;28;20422;-67
2021/10/03 10:43:40;;;;;;;24.00;10.75;;;;;;;16.90;94.02;98627.94;5071903;28;20383;-67
2021/10/03 10:46:08;;;;;;;18.05;9.82;;;;;;;16.88;94.07;98638.78;5068517;28;20084;-66
2021/10/03 10:48:36;;;;;;;20.20;9.93;;;;;;;16.96;92.59;98634.75;5074172;28;20056;-66
2021/10/03 10:51:18;;;;;;;23.10;12.07;;;;;;;17.03;95.46;98614.28;5073858;28;20063;-67
2021/10/03 10:53:46;;;;;;;24.63;11.18;;;;;;;16.81;93.81;98614.28;5073465;28;20076;-66
2021/10/03 10:56:17;;;;;;;18.45;11.07;;;;;;;17.11;95.99;98627.09;5073598;28;20044;-66
2021/10/03 10:59:03;;;;;;;17.65;10.20;;;;;;;17.08;92.76;98618.69;5072817;28;20048;-66
2021/10/03 11:01:40;;;;;;;18.88;12.25;;;;;;;17.13;92.87;98621.06;5054984;28;20057;-67
2021/10/03 11:04:24;;;;;;;15.57;10.73;;;;;;;17.15;93.45;98621.47;5061116;28;20049;-66
2021/10/03 11:06:54;;;;;;;16.52;10.27;;;;;;;17.01;93.12;98614.69;5072698;28;20475;-67
2021/10/03 11:09:21;;;;;;;;;;;;;;;16.83;93.65;98608.25;5072415;28;20051;-67
2021/10/03 11:12:13;;;;;;;22.17;11.73;;;;;;;17.13;94.17;98605.00;5071284;28;19927;-66
2021/10/03 11:14:42;;;;;;;20.20;10.57;;;;;;;17.11;93.23;98613.03;5053507;28;20045;-66
2021/10/03 11:17:13;;;;;;;21.73;12.68;;;;;;;16.99;94.42;98611.47;5071774;28;20471;-66
2021/10/03 11:19:51;;;;;;;18.60;9.10;;;;;;;16.97;94.03;98605.44;5073202;28;20063;-66
2021/10/03 11:22:25;;;;;;;21.42;9.63;;;;;;;16.90;98.18;98625.13;5072464;28;20056;-66
2021/10/03 11:24:54;;;;;;;33.50;12.73;;;;;;;16.90;100.00;98607.44;5071292;28;20056;-67
2021/10/03 11:27:26;;;;;;;18.50;10.95;;;;;;;16.71;99.19;98600.19;5072783;28;20063;-67
2021/10/03 11:29:56;;;;;;;18.10;11.48;;;;;;;16.82;96.85;98593.41;5074024;28;20514;-66
2021/10/03 11:32:27;;;;;;;18.58;11.27;;;;;;;16.90;95.93;98602.63;5073410;28;20076;-67
2021/10/03 11:34:57;;;;;;;26.55;13.35;;;;;;;17.03;95.86;98586.94;5072844;28;20068;-66
2021/10/03 11:37:29;;;;;;;24.00;12.38;;;;;;;17.14;95.36;98589.75;5072335;28;20040;-66
2021/10/03 11:39:59;;;;;;;17.70;10.35;;;;;;;17.34;93.33;98586.47;5071988;28;20064;-66